Portada
METAR-TAF:

METAR-TAF

Aeroports :

Al-Kharj, Aràbia Saudita

latitud: 24-03-19N, longitud: 047-33-49E, altitud: 503 m

Observació

L'informe es va fer fa 1 hora i 2 minuts, a les 05:00 UTC
Vent 12 kt del Sud
Temperatura 19°C
Humitat 24%
Pressió 1021 hPa
Visibilitat 10 km o més

METAR: OEKJ 260500Z 17012KT 9999 NCD 19/M02 Q1021

Hora: 09:02 (06:02 UTC)

Pronòstic

L'informe es va fer fa 7 hores i 2 minuts, a les 23:00 UTC
Pronòstic vàlid del 26 a les 00 UTC al 27 a les 06 UTC
Vent 3 kt amb direcció variable
Visibilitat 10 km o més
sense núvols per sota de 1500 mi sense presència de cumulonimbus.
Evolucionant progressivament
l' 26 a les 06 UTC al 26 a les 08 UTC
Vent 18 kt del Sud
Temporalment
l' 26 a les 06 UTC al 26 a les 14 UTC
Visibilitat: 4000 m
torb alta de pols

TAF: OEKJ 252300Z 2600/2706 VRB03KT CAVOK BECMG 2606/2608 18018KT TEMPO 2606/2614 4000 BLDU

Observacions i pronòstics meteorològics de més de 4000 aeroports (METAR i TAF).

Les estacions disponibles són els punts grocs i vermells al mapa.

Posi el ratolí al punt desitjat per veure el nom de l'estació.

Feu clic per veure les observacions i els pronòstics meteorològics.

Per canviar el mapa: feu clic els botons verds amb una creu de color negre per apropar; al botó verd amb un guió per allunyar la imatge; o en les fletxes verdes per a mapes adjacents.


METAR-TAF: